createdAt,value
2023-05-17T04:32:12.652Z,15.51
2023-05-17T04:35:15.377Z,15.51
2023-05-17T04:38:18.016Z,14.98
2023-05-17T04:41:20.656Z,15.07
2023-05-17T04:44:23.336Z,15.01
2023-05-17T04:47:26.318Z,15.08
2023-05-17T04:50:29.049Z,15.19
2023-05-17T04:53:31.775Z,15.25
2023-05-17T04:56:37.448Z,15.29
2023-05-17T04:59:40.006Z,15.35
2023-05-17T05:02:42.666Z,15.34
2023-05-17T05:05:45.559Z,15.42
2023-05-17T05:08:48.133Z,15.79
2023-05-17T05:11:50.831Z,15.60
2023-05-17T05:14:53.458Z,16.00
2023-05-17T05:17:56.184Z,15.82
2023-05-17T05:20:59.509Z,15.63
2023-05-17T05:24:02.105Z,15.98
2023-05-17T05:27:06.948Z,15.77
2023-05-17T05:30:09.941Z,15.85
2023-05-17T05:33:12.535Z,16.14
2023-05-17T05:36:15.173Z,16.07
2023-05-17T05:39:18.227Z,16.03
2023-05-17T05:42:20.842Z,16.06
2023-05-17T05:45:23.441Z,16.28
2023-05-17T05:48:26.224Z,16.34
2023-05-17T05:51:28.963Z,16.27
2023-05-17T05:54:31.579Z,16.32
2023-05-17T05:57:34.772Z,16.24
2023-05-17T06:00:37.799Z,16.32
2023-05-17T06:03:40.700Z,16.22
2023-05-17T06:06:43.580Z,16.17
2023-05-17T06:09:46.415Z,16.11
2023-05-17T06:12:49.149Z,16.26
2023-05-17T06:15:51.814Z,16.09
2023-05-17T06:18:54.517Z,16.44
2023-05-17T06:21:57.333Z,16.43
2023-05-17T06:24:59.961Z,16.50
2023-05-17T06:28:04.187Z,16.44
2023-05-17T06:31:06.854Z,16.28
2023-05-17T06:34:09.558Z,16.25
2023-05-17T06:37:12.227Z,16.24
2023-05-17T06:40:16.525Z,16.45
2023-05-17T06:43:35.800Z,16.43
2023-05-17T06:46:40.167Z,16.40
2023-05-17T06:49:42.769Z,16.41
2023-05-17T06:52:45.486Z,16.54
2023-05-17T06:55:48.083Z,16.54
2023-05-17T06:58:50.702Z,16.66
2023-05-17T07:01:53.680Z,16.66
2023-05-17T07:04:56.849Z,16.66
2023-05-17T07:07:59.584Z,16.81
2023-05-17T07:11:03.101Z,16.83
2023-05-17T07:14:05.843Z,16.95
2023-05-17T07:17:10.843Z,16.87
2023-05-17T07:20:13.622Z,16.98
2023-05-17T07:23:16.433Z,17.11
2023-05-17T07:26:22.250Z,17.01
2023-05-17T07:29:25.833Z,17.21
2023-05-17T07:32:28.650Z,17.21
2023-05-17T07:35:31.531Z,17.18
2023-05-17T07:38:37.163Z,17.15
2023-05-17T07:41:39.875Z,16.95
2023-05-17T07:44:42.506Z,17.07
2023-05-17T07:47:45.131Z,17.09
2023-05-17T07:50:49.142Z,17.12
2023-05-17T07:53:51.689Z,17.18
2023-05-17T07:56:55.545Z,17.23
2023-05-17T07:59:58.098Z,17.11
2023-05-17T08:03:01.788Z,17.20
2023-05-17T08:06:05.214Z,17.19
2023-05-17T08:09:09.830Z,17.25
2023-05-17T08:12:13.948Z,17.28
2023-05-17T08:15:16.916Z,17.26
2023-05-17T08:18:19.713Z,17.33
2023-05-17T08:21:23.315Z,17.36
2023-05-17T08:24:26.935Z,17.51
2023-05-17T08:27:32.683Z,17.44
2023-05-17T08:30:35.962Z,17.22
2023-05-17T08:33:39.070Z,17.18
2023-05-17T08:36:42.609Z,17.19
2023-05-17T08:39:45.517Z,17.34
2023-05-17T08:42:48.223Z,17.41
2023-05-17T08:45:50.978Z,17.73
2023-05-17T08:48:56.265Z,17.56
2023-05-17T08:52:00.869Z,17.61
2023-05-17T08:55:04.161Z,17.65
2023-05-17T08:58:07.317Z,17.41
2023-05-17T09:01:10.221Z,17.77
2023-05-17T09:04:12.879Z,17.83
2023-05-17T09:07:17.293Z,17.82
2023-05-17T09:10:20.205Z,17.87
2023-05-17T09:13:22.793Z,17.91
2023-05-17T09:16:26.600Z,18.13
2023-05-17T09:19:29.302Z,18.15
2023-05-17T09:22:32.090Z,18.11
2023-05-17T09:25:34.778Z,18.27
2023-05-17T09:28:39.189Z,18.03
2023-05-17T09:31:43.439Z,18.22
2023-05-17T09:34:47.125Z,18.43
2023-05-17T09:37:49.711Z,18.43
2023-05-17T09:40:52.316Z,18.54
2023-05-17T09:43:58.746Z,18.46
2023-05-17T09:47:01.312Z,18.34
2023-05-17T09:50:05.028Z,18.83
2023-05-17T09:53:07.973Z,18.64
2023-05-17T09:56:10.743Z,18.62
2023-05-17T09:59:14.976Z,18.85
2023-05-17T10:02:22.741Z,18.68
2023-05-17T10:05:25.638Z,18.66
2023-05-17T10:08:28.526Z,18.88
2023-05-17T10:11:34.461Z,18.76
2023-05-17T10:14:37.272Z,18.74
2023-05-17T10:17:44.707Z,18.91
2023-05-17T10:20:48.329Z,19.05
2023-05-17T10:23:51.267Z,19.24
2023-05-17T10:26:54.159Z,19.43
2023-05-17T10:29:57.150Z,19.24
2023-05-17T10:33:00.850Z,19.32
2023-05-17T10:36:03.790Z,19.19
2023-05-17T10:39:09.934Z,19.11
2023-05-17T10:42:15.127Z,19.20
2023-05-17T10:45:24.331Z,19.46
2023-05-17T10:48:29.162Z,19.57
2023-05-17T10:51:34.012Z,19.67
2023-05-17T10:54:37.111Z,19.71
2023-05-17T10:57:49.935Z,19.63
2023-05-17T11:00:55.947Z,19.56
2023-05-17T11:03:58.486Z,19.55
2023-05-17T11:07:21.943Z,19.80
2023-05-17T11:10:25.507Z,19.78
2023-05-17T11:13:28.574Z,19.81
2023-05-17T11:16:38.521Z,19.86
2023-05-17T11:19:57.630Z,20.04
2023-05-17T11:23:07.356Z,19.94
2023-05-17T11:26:37.696Z,19.95
2023-05-17T11:29:42.554Z,19.85
2023-05-17T11:32:56.274Z,19.72
2023-05-17T11:35:59.166Z,19.56
2023-05-17T11:39:16.346Z,19.45
2023-05-17T11:42:25.179Z,19.57
2023-05-17T11:45:28.224Z,19.34
2023-05-17T11:48:32.005Z,19.55
2023-05-17T11:51:36.208Z,19.74
2023-05-17T11:54:39.481Z,19.51
2023-05-17T11:57:42.108Z,19.71
2023-05-17T12:00:45.732Z,19.80
2023-05-17T12:03:48.767Z,19.99
2023-05-17T12:06:54.899Z,19.99
2023-05-17T12:10:00.476Z,20.03
2023-05-17T12:13:04.186Z,20.00
2023-05-17T12:16:11.639Z,19.89
2023-05-17T12:19:21.369Z,19.88
2023-05-17T12:22:34.738Z,19.89
2023-05-17T12:25:40.803Z,19.78
2023-05-17T12:28:54.221Z,19.66
2023-05-17T12:31:56.863Z,19.33
2023-05-17T12:34:59.755Z,19.34
2023-05-17T12:38:02.530Z,19.39
2023-05-17T12:41:06.094Z,19.15
2023-05-17T12:44:15.419Z,19.05
2023-05-17T12:47:18.894Z,19.10
2023-05-17T12:50:30.993Z,19.19
2023-05-17T12:53:41.347Z,19.11
2023-05-17T12:56:44.740Z,19.28
2023-05-17T12:59:49.110Z,19.38
2023-05-17T13:02:51.868Z,19.72
2023-05-17T13:06:05.687Z,19.51
2023-05-17T13:09:08.505Z,19.39
2023-05-17T13:12:11.196Z,19.43
2023-05-17T13:15:13.857Z,19.58
2023-05-17T13:18:16.736Z,19.48
2023-05-17T13:21:20.002Z,19.41
2023-05-17T13:24:22.673Z,19.34
2023-05-17T13:27:25.274Z,19.39
2023-05-17T13:30:28.007Z,19.30
2023-05-17T13:33:31.966Z,19.46
2023-05-17T13:36:34.685Z,19.47
2023-05-17T13:39:37.350Z,19.52
2023-05-17T13:42:39.966Z,19.56
2023-05-17T13:45:42.539Z,19.35
2023-05-17T13:48:45.462Z,19.51
2023-05-17T13:51:48.054Z,19.80
2023-05-17T13:54:50.631Z,19.95
2023-05-17T13:57:53.223Z,19.95
2023-05-17T14:00:55.977Z,20.04
2023-05-17T14:03:59.299Z,20.14
2023-05-17T14:07:03.622Z,20.02
2023-05-17T14:10:06.979Z,20.24
2023-05-17T14:13:09.439Z,20.27
2023-05-17T14:16:11.960Z,20.41
2023-05-17T14:19:14.697Z,20.27
2023-05-17T14:22:17.285Z,20.36
2023-05-17T14:25:19.888Z,20.29
2023-05-17T14:28:22.446Z,20.52
2023-05-17T14:31:25.054Z,20.43
2023-05-17T14:34:27.776Z,20.39
2023-05-17T14:37:30.574Z,20.17
2023-05-17T14:40:33.169Z,20.04
2023-05-17T14:43:36.115Z,19.86
2023-05-17T14:46:38.841Z,19.68
2023-05-17T14:49:41.745Z,19.85
2023-05-17T14:52:44.577Z,19.74
2023-05-17T14:55:47.818Z,19.63
2023-05-17T14:58:51.325Z,19.63
2023-05-17T15:01:53.988Z,19.63
2023-05-17T15:04:57.220Z,19.54
2023-05-17T15:07:59.906Z,19.46
2023-05-17T15:11:02.542Z,19.13
2023-05-17T15:14:06.250Z,19.07
2023-05-17T15:17:08.881Z,19.09
2023-05-17T15:20:11.894Z,18.96
2023-05-17T15:23:14.498Z,18.95
